Time;durP1;ratioP1;P1;durP2;ratioP2;P2;SDS_P1;SDS_P2;PMS_P1;PMS_P2;Temp;Humidity;BMP_temperature;BMP_pressure;BME280_temperature;BME280_humidity;BME280_pressure;Samples;Min_cycle;Max_cycle;Signal;HPM_P1;HPM_P2
2023/01/14 00:01:15;;;;;;;0.20;0.20;;;;;;;;;;5044588;28;20033;-74
2023/01/14 00:03:40;;;;;;;0.15;0.15;;;;;;;;;;5039142;28;20047;-72
2023/01/14 00:06:06;;;;;;;0.10;0.10;;;;;;;;;;5041951;28;20471;-76
2023/01/14 00:08:31;;;;;;;0.20;0.20;;;;;;;;;;5042913;28;20106;-72
2023/01/14 00:11:00;;;;;;;0.10;0.10;;;;;;;;;;5043862;28;20076;-72
2023/01/14 00:13:25;;;;;;;0.20;0.20;;;;;;;;;;5042392;28;20017;-73
2023/01/14 00:15:52;;;;;;;0.10;0.10;;;;;;;;;;5044083;28;20036;-72
2023/01/14 00:18:17;;;;;;;0.10;0.10;;;;;;;;;;5046713;28;20033;-73
2023/01/14 00:20:42;;;;;;;0.17;0.17;;;;;;;;;;5045462;28;20076;-73
2023/01/14 00:23:07;;;;;;;0.20;0.20;;;;;;;;;;5041792;28;20032;-73
2023/01/14 00:25:36;;;;;;;0.20;0.20;;;;;;;;;;5033931;28;20032;-73
2023/01/14 00:28:01;;;;;;;0.20;0.20;;;;;;;;;;5043896;28;20250;-73
2023/01/14 00:30:26;;;;;;;0.20;0.20;;;;;;;;;;5040963;28;20458;-72
2023/01/14 00:32:52;;;;;;;0.17;0.17;;;;;;;;;;5038290;28;20724;-73
2023/01/14 00:35:17;;;;;;;0.20;0.20;;;;;;;;;;5040127;28;20277;-73
2023/01/14 00:37:42;;;;;;;0.20;0.20;;;;;;;;;;5031621;28;20250;-72
2023/01/14 00:40:07;;;;;;;0.20;0.20;;;;;;;;;;5039381;28;20282;-73
2023/01/14 00:42:33;;;;;;;0.20;0.20;;;;;;;;;;5038116;28;20274;-72
2023/01/14 00:44:58;;;;;;;0.20;0.20;;;;;;;;;;5033641;28;20071;-72
2023/01/14 00:47:23;;;;;;;0.20;0.20;;;;;;;;;;5039205;28;20041;-73
2023/01/14 00:49:48;;;;;;;0.20;0.20;;;;;;;;;;5024957;28;20270;-72
2023/01/14 00:52:13;;;;;;;0.10;0.10;;;;;;;;;;5037307;28;20391;-73
2023/01/14 00:54:39;;;;;;;0.20;0.20;;;;;;;;;;5040077;28;20254;-72
2023/01/14 00:57:04;;;;;;;0.20;0.20;;;;;;;;;;5041344;28;20028;-73
2023/01/14 00:59:29;;;;;;;0.10;0.10;;;;;;;;;;5032985;28;20013;-72
2023/01/14 01:01:55;;;;;;;0.20;0.20;;;;;;;;;;5034712;28;20036;-72
2023/01/14 01:04:20;;;;;;;0.20;0.20;;;;;;;;;;5037476;28;20650;-72
2023/01/14 01:06:45;;;;;;;0.15;0.15;;;;;;;;;;5026003;28;20036;-72
2023/01/14 01:09:11;;;;;;;0.20;0.20;;;;;;;;;;5034430;28;20032;-72
2023/01/14 01:11:36;;;;;;;0.20;0.20;;;;;;;;;;5029188;28;20025;-73
2023/01/14 01:14:01;;;;;;;0.20;0.20;;;;;;;;;;5035339;28;20032;-72
2023/01/14 01:16:27;;;;;;;0.20;0.20;;;;;;;;;;5027143;28;20044;-72
2023/01/14 01:18:53;;;;;;;0.20;0.20;;;;;;;;;;5041350;28;20282;-72
2023/01/14 01:21:18;;;;;;;0.15;0.15;;;;;;;;;;5036851;28;20065;-74
2023/01/14 01:23:44;;;;;;;0.20;0.20;;;;;;;;;;5040151;28;20573;-72
2023/01/14 01:26:13;;;;;;;0.20;0.20;;;;;;;;;;5034562;28;20025;-72
2023/01/14 01:28:39;;;;;;;0.20;0.20;;;;;;;;;;5035678;28;20035;-73
2023/01/14 01:31:05;;;;;;;0.20;0.20;;;;;;;;;;5030904;28;20021;-72
2023/01/14 01:33:30;;;;;;;0.20;0.20;;;;;;;;;;5035087;28;20029;-73
2023/01/14 01:36:03;;;;;;;0.20;0.20;;;;;;;;;;5043291;28;20037;-75
2023/01/14 01:38:29;;;;;;;0.20;0.20;;;;;;;;;;5035711;28;20121;-73
2023/01/14 01:40:54;;;;;;;0.13;0.13;;;;;;;;;;5036556;28;20047;-73
2023/01/14 01:43:21;;;;;;;0.20;0.20;;;;;;;;;;5036377;28;20397;-73
2023/01/14 01:45:47;;;;;;;0.20;0.20;;;;;;;;;;5038795;28;20083;-73
2023/01/14 01:48:14;;;;;;;0.20;0.20;;;;;;;;;;5044881;28;20490;-73
2023/01/14 01:50:40;;;;;;;0.20;0.20;;;;;;;;;;5044398;28;20025;-74
2023/01/14 01:53:07;;;;;;;0.20;0.20;;;;;;;;;;5039238;28;20037;-74
2023/01/14 01:55:34;;;;;;;0.20;0.20;;;;;;;;;;5038822;28;20036;-73
2023/01/14 01:57:59;;;;;;;0.20;0.20;;;;;;;;;;5038563;28;20035;-73
2023/01/14 02:00:25;;;;;;;0.20;0.20;;;;;;;;;;5037382;28;20026;-73
2023/01/14 02:02:56;;;;;;;0.22;0.22;;;;;;;;;;5032394;28;20371;-73
2023/01/14 02:05:21;;;;;;;0.30;0.30;;;;;;;;;;5040433;28;20151;-73
2023/01/14 02:07:46;;;;;;;0.20;0.20;;;;;;;;;;5040808;28;20021;-73
2023/01/14 02:10:12;;;;;;;0.20;0.20;;;;;;;;;;5035551;28;20064;-73
2023/01/14 02:12:37;;;;;;;0.20;0.20;;;;;;;;;;5037590;28;20025;-72
2023/01/14 02:15:02;;;;;;;0.20;0.20;;;;;;;;;;5035397;28;20108;-74
2023/01/14 02:17:33;;;;;;;0.10;0.10;;;;;;;;;;5043195;28;20048;-73
2023/01/14 02:20:21;;;;;;;0.20;0.20;;;;;;;;;;5035979;28;20285;-72
2023/01/14 02:22:55;;;;;;;0.25;0.25;;;;;;;;;;5037134;28;20055;-73
2023/01/14 02:25:20;;;;;;;;;;;;;;;;;;5039287;28;20109;-72
2023/01/14 02:27:53;;;;;;;0.20;0.20;;;;;;;;;;5038766;28;19913;-73
2023/01/14 02:30:32;;;;;;;0.20;0.20;;;;;;;;;;5033953;28;20035;-72
2023/01/14 02:33:06;;;;;;;0.20;0.20;;;;;;;;;;5042433;28;20059;-74
2023/01/14 02:35:40;;;;;;;0.30;0.30;;;;;;;;;;5035887;28;20033;-73
2023/01/14 02:38:10;;;;;;;0.30;0.30;;;;;;;;;;5032692;28;20095;-75
2023/01/14 02:40:43;;;;;;;0.25;0.25;;;;;;;;;;5033459;28;20029;-73
2023/01/14 02:46:30;;;;;;;0.22;0.22;;;;;;;;;;5039423;28;20116;-73
2023/01/14 02:48:55;;;;;;;0.20;0.20;;;;;;;;;;5026552;28;20037;-74
2023/01/14 02:51:21;;;;;;;0.30;0.30;;;;;;;;;;5034860;28;20370;-74
2023/01/14 02:53:46;;;;;;;0.20;0.20;;;;;;;;;;5038158;28;20444;-73
2023/01/14 02:56:11;;;;;;;0.20;0.20;;;;;;;;;;5038271;28;20024;-73
2023/01/14 02:58:36;;;;;;;0.20;0.20;;;;;;;;;;5042190;28;20179;-73
2023/01/14 03:01:25;;;;;;;0.17;0.17;;;;;;;;;;5037671;28;20425;-73
2023/01/14 03:03:59;;;;;;;0.20;0.20;;;;;;;;;;5042521;28;20261;-74
2023/01/14 03:06:25;;;;;;;;;;;;;;;;;;5037481;28;20546;-74
2023/01/14 03:09:00;;;;;;;0.20;0.20;;;;;;;;;;5042778;28;20248;-74
2023/01/14 03:11:30;;;;;;;0.20;0.20;;;;;;;;;;5040058;28;20567;-73
2023/01/14 03:14:03;;;;;;;0.20;0.20;;;;;;;;;;5035378;28;20026;-73
2023/01/14 03:16:40;;;;;;;0.20;0.20;;;;;;;;;;5036784;28;20025;-73
2023/01/14 03:19:11;;;;;;;0.30;0.30;;;;;;;;;;5041793;28;20032;-74
2023/01/14 03:21:39;;;;;;;0.30;0.30;;;;;;;;;;5042147;28;20036;-73
2023/01/14 03:24:04;;;;;;;0.20;0.20;;;;;;;;;;5034701;28;20029;-73
2023/01/14 03:26:31;;;;;;;0.20;0.20;;;;;;;;;;5039303;28;20490;-73
2023/01/14 03:29:00;;;;;;;0.20;0.20;;;;;;;;;;5038280;28;20025;-73
2023/01/14 03:31:27;;;;;;;0.30;0.30;;;;;;;;;;5032156;28;20025;-73
2023/01/14 03:33:55;;;;;;;0.30;0.30;;;;;;;;;;5031643;28;20022;-73
2023/01/14 03:36:22;;;;;;;0.30;0.30;;;;;;;;;;5038268;28;20987;-73
2023/01/14 03:38:59;;;;;;;0.40;0.40;;;;;;;;;;5035636;28;20034;-73
2023/01/14 03:44:15;;;;;;;0.25;0.25;;;;;;;;;;5044797;28;20113;-73
2023/01/14 03:46:41;;;;;;;0.30;0.30;;;;;;;;;;5041830;28;20491;-73
2023/01/14 03:49:06;;;;;;;0.28;0.28;;;;;;;;;;5041502;28;20068;-75
2023/01/14 03:51:34;;;;;;;0.30;0.30;;;;;;;;;;5041438;28;20025;-73
2023/01/14 03:54:18;;;;;;;0.22;0.22;;;;;;;;;;5046544;28;20426;-76
2023/01/14 03:56:57;;;;;;;0.30;0.30;;;;;;;;;;5041102;28;20024;-74
2023/01/14 03:59:27;;;;;;;0.20;0.20;;;;;;;;;;5038744;28;20487;-72
2023/01/14 04:01:53;;;;;;;0.22;0.22;;;;;;;;;;5033487;28;20496;-73
2023/01/14 04:04:19;;;;;;;0.28;0.28;;;;;;;;;;5041709;28;20471;-74
2023/01/14 04:06:44;;;;;;;0.20;0.20;;;;;;;;;;5036223;28;20027;-73
2023/01/14 04:09:09;;;;;;;0.30;0.30;;;;;;;;;;5035555;28;20025;-73
2023/01/14 04:11:35;;;;;;;0.20;0.20;;;;;;;;;;5034537;28;20119;-74
2023/01/14 04:16:43;;;;;;;0.20;0.20;;;;;;;;;;5035310;28;20101;-73
2023/01/14 04:19:09;;;;;;;0.30;0.30;;;;;;;;;;5038516;28;20556;-73
2023/01/14 04:21:34;;;;;;;0.20;0.20;;;;;;;;;;5036740;28;20420;-73
2023/01/14 04:23:59;;;;;;;0.30;0.30;;;;;;;;;;5038587;28;20043;-72
2023/01/14 04:26:24;;;;;;;0.30;0.30;;;;;;;;;;5037462;28;20395;-73
2023/01/14 04:28:49;;;;;;;0.20;0.20;;;;;;;;;;5040903;28;20767;-74
2023/01/14 04:31:15;;;;;;;0.30;0.30;;;;;;;;;;5038753;28;20035;-73
2023/01/14 04:33:40;;;;;;;0.20;0.20;;;;;;;;;;5036031;28;20270;-75
2023/01/14 04:36:06;;;;;;;0.30;0.30;;;;;;;;;;5040899;28;20270;-73
2023/01/14 04:38:31;;;;;;;0.20;0.20;;;;;;;;;;5039513;28;20029;-73
2023/01/14 04:40:56;;;;;;;0.20;0.20;;;;;;;;;;5040546;28;20124;-74
2023/01/14 04:43:21;;;;;;;0.30;0.30;;;;;;;;;;5035155;28;20282;-73
2023/01/14 04:45:50;;;;;;;0.20;0.20;;;;;;;;;;5038612;28;20289;-74
2023/01/14 04:48:16;;;;;;;0.20;0.20;;;;;;;;;;5041078;28;20165;-74
2023/01/14 04:50:44;;;;;;;0.30;0.30;;;;;;;;;;5042842;28;20454;-75
2023/01/14 04:53:12;;;;;;;0.30;0.30;;;;;;;;;;5042488;28;20025;-75
2023/01/14 04:55:38;;;;;;;0.22;0.22;;;;;;;;;;5038822;28;20048;-73
2023/01/14 04:58:04;;;;;;;0.20;0.20;;;;;;;;;;5046176;28;20391;-73
2023/01/14 05:00:30;;;;;;;0.45;0.30;;;;;;;;;;5038314;28;20371;-73
2023/01/14 05:02:55;;;;;;;0.20;0.20;;;;;;;;;;5040574;28;20036;-74
2023/01/14 05:05:20;;;;;;;0.30;0.30;;;;;;;;;;5044064;28;20127;-74
2023/01/14 05:07:45;;;;;;;0.20;0.20;;;;;;;;;;5041650;28;20020;-73
2023/01/14 05:10:11;;;;;;;0.20;0.20;;;;;;;;;;5035095;28;20071;-73
2023/01/14 05:12:36;;;;;;;0.30;0.30;;;;;;;;;;5041304;28;20356;-74
2023/01/14 05:15:01;;;;;;;0.30;0.30;;;;;;;;;;5035531;28;20032;-75
2023/01/14 05:17:26;;;;;;;0.20;0.20;;;;;;;;;;5042276;28;20056;-76
2023/01/14 05:19:51;;;;;;;0.20;0.20;;;;;;;;;;5041213;28;20060;-76
2023/01/14 05:22:17;;;;;;;0.20;0.20;;;;;;;;;;5044673;28;20269;-75
2023/01/14 05:24:42;;;;;;;0.20;0.20;;;;;;;;;;5035162;28;20916;-73
2023/01/14 05:27:07;;;;;;;0.30;0.30;;;;;;;;;;5035168;28;20497;-74
2023/01/14 05:29:32;;;;;;;0.20;0.20;;;;;;;;;;5039424;28;20478;-75
2023/01/14 05:31:57;;;;;;;0.20;0.20;;;;;;;;;;5040983;28;20266;-74
2023/01/14 05:34:23;;;;;;;0.20;0.20;;;;;;;;;;5039329;28;20690;-77
2023/01/14 05:36:49;;;;;;;0.20;0.20;;;;;;;;;;5036682;28;20029;-78
2023/01/14 05:39:14;;;;;;;0.20;0.20;;;;;;;;;;5042416;28;20036;-78
2023/01/14 05:45:37;;;;;;;0.30;0.30;;;;;;;;;;5036797;28;20879;-76
2023/01/14 05:47:08;;;;;;;0.30;0.30;;;;;;;;;;5032250;28;20043;-78
2023/01/14 05:49:33;;;;;;;0.20;0.20;;;;;;;;;;5042329;28;20032;-77
2023/01/14 05:51:58;;;;;;;0.20;0.20;;;;;;;;;;5039176;28;20033;-76
2023/01/14 05:54:24;;;;;;;0.20;0.20;;;;;;;;;;5041728;28;20305;-75
2023/01/14 05:56:49;;;;;;;0.20;0.20;;;;;;;;;;5035293;28;20407;-77
2023/01/14 05:59:14;;;;;;;0.20;0.20;;;;;;;;;;5043637;28;20286;-74
2023/01/14 06:07:07;;;;;;;0.20;0.20;;;;;;;;;;5039491;28;20060;-74
2023/01/14 06:09:33;;;;;;;0.20;0.20;;;;;;;;;;5042023;28;20403;-75
2023/01/14 06:12:04;;;;;;;0.30;0.30;;;;;;;;;;5037349;28;20888;-74
2023/01/14 06:14:32;;;;;;;0.20;0.20;;;;;;;;;;5039755;28;20033;-77
2023/01/14 06:16:58;;;;;;;0.20;0.20;;;;;;;;;;5032233;28;20029;-73
2023/01/14 06:19:23;;;;;;;0.20;0.20;;;;;;;;;;5037306;28;20058;-73
2023/01/14 06:21:48;;;;;;;0.20;0.20;;;;;;;;;;5036715;28;20033;-77
2023/01/14 06:24:14;;;;;;;0.20;0.20;;;;;;;;;;5038043;28;20028;-77
2023/01/14 06:26:39;;;;;;;0.20;0.20;;;;;;;;;;5037097;28;20079;-75
2023/01/14 06:29:06;;;;;;;0.22;0.22;;;;;;;;;;5046143;28;20719;-75
2023/01/14 06:31:32;;;;;;;0.20;0.20;;;;;;;;;;5038671;28;20021;-75
2023/01/14 06:33:57;;;;;;;0.20;0.20;;;;;;;;;;5039549;28;20035;-74
2023/01/14 06:36:23;;;;;;;0.20;0.20;;;;;;;;;;5040489;28;20379;-75
2023/01/14 06:38:48;;;;;;;0.20;0.20;;;;;;;;;;5034410;28;20029;-74
2023/01/14 06:41:13;;;;;;;0.20;0.20;;;;;;;;;;5034315;28;20067;-76
2023/01/14 06:43:41;;;;;;;0.30;0.30;;;;;;;;;;5032168;28;20037;-76
2023/01/14 06:46:07;;;;;;;0.20;0.20;;;;;;;;;;5036194;28;20398;-75
2023/01/14 06:48:32;;;;;;;0.20;0.20;;;;;;;;;;5036820;28;20344;-75
2023/01/14 06:51:02;;;;;;;0.20;0.20;;;;;;;;;;5041920;28;20029;-78
2023/01/14 06:53:27;;;;;;;0.20;0.20;;;;;;;;;;5042405;28;20017;-76
2023/01/14 06:55:52;;;;;;;0.20;0.20;;;;;;;;;;5038389;28;20534;-75
2023/01/14 06:58:17;;;;;;;0.30;0.30;;;;;;;;;;5040994;28;20270;-75
2023/01/14 07:00:42;;;;;;;0.20;0.20;;;;;;;;;;5035938;28;20033;-74
2023/01/14 07:03:08;;;;;;;0.20;0.20;;;;;;;;;;5039156;28;20277;-78
2023/01/14 07:05:33;;;;;;;0.20;0.20;;;;;;;;;;5039456;28;20033;-76
2023/01/14 07:07:58;;;;;;;0.30;0.30;;;;;;;;;;5038582;28;20272;-73
2023/01/14 07:10:23;;;;;;;0.30;0.30;;;;;;;;;;5031377;28;20021;-73
2023/01/14 07:12:50;;;;;;;0.20;0.20;;;;;;;;;;5033222;28;20729;-77
2023/01/14 07:15:16;;;;;;;0.20;0.20;;;;;;;;;;5029840;28;20147;-75
2023/01/14 07:17:43;;;;;;;0.20;0.20;;;;;;;;;;5036016;28;20029;-76
2023/01/14 07:20:09;;;;;;;0.22;0.22;;;;;;;;;;5038692;28;20072;-74
2023/01/14 07:22:34;;;;;;;0.30;0.30;;;;;;;;;;5029043;28;20427;-73
2023/01/14 07:25:02;;;;;;;0.20;0.20;;;;;;;;;;5030558;28;20033;-76
2023/01/14 07:27:28;;;;;;;0.20;0.20;;;;;;;;;;5038604;28;20111;-77
2023/01/14 07:29:53;;;;;;;0.20;0.20;;;;;;;;;;5038969;28;20068;-74
2023/01/14 07:32:18;;;;;;;0.20;0.20;;;;;;;;;;5029827;28;20105;-72
2023/01/14 07:34:43;;;;;;;0.30;0.30;;;;;;;;;;5037087;28;20274;-74
2023/01/14 07:37:09;;;;;;;0.20;0.20;;;;;;;;;;5047037;28;20037;-77
2023/01/14 07:39:34;;;;;;;0.30;0.30;;;;;;;;;;5035749;28;20269;-75
2023/01/14 07:41:59;;;;;;;0.30;0.30;;;;;;;;;;5032406;28;20782;-76
2023/01/14 07:44:25;;;;;;;0.20;0.20;;;;;;;;;;5033623;28;20465;-77
2023/01/14 07:46:51;;;;;;;0.20;0.20;;;;;;;;;;5032613;28;20065;-74
2023/01/14 07:49:16;;;;;;;0.20;0.20;;;;;;;;;;5046532;28;20021;-73
2023/01/14 07:51:41;;;;;;;0.30;0.30;;;;;;;;;;5037013;28;20029;-77
2023/01/14 07:54:06;;;;;;;0.30;0.30;;;;;;;;;;5038597;28;20284;-77
2023/01/14 07:56:32;;;;;;;0.25;0.25;;;;;;;;;;5041110;28;20717;-74
2023/01/14 07:58:57;;;;;;;0.20;0.20;;;;;;;;;;5039193;28;20029;-76
2023/01/14 08:01:22;;;;;;;0.20;0.20;;;;;;;;;;5039954;28;20047;-74
2023/01/14 08:03:47;;;;;;;0.23;0.23;;;;;;;;;;5034919;28;20117;-73
2023/01/14 08:06:12;;;;;;;0.20;0.20;;;;;;;;;;5037604;28;21206;-75
2023/01/14 08:08:38;;;;;;;0.30;0.30;;;;;;;;;;5043864;28;20261;-76
2023/01/14 08:11:03;;;;;;;0.20;0.20;;;;;;;;;;5041682;28;20265;-75
2023/01/14 08:13:30;;;;;;;0.20;0.20;;;;;;;;;;5038181;28;20493;-76
2023/01/14 08:15:59;;;;;;;0.20;0.20;;;;;;;;;;5039750;28;20052;-76
2023/01/14 08:18:24;;;;;;;0.20;0.20;;;;;;;;;;5035196;28;20024;-76
2023/01/14 08:20:59;;;;;;;0.20;0.20;;;;;;;;;;5042969;28;20463;-75
2023/01/14 08:23:24;;;;;;;0.20;0.20;;;;;;;;;;5034170;28;20432;-74
2023/01/14 08:25:50;;;;;;;0.30;0.30;;;;;;;;;;5031731;28;20028;-75
2023/01/14 08:28:15;;;;;;;0.20;0.20;;;;;;;;;;5034228;28;20013;-74
2023/01/14 08:30:40;;;;;;;0.30;0.30;;;;;;;;;;5030324;28;20459;-76
2023/01/14 08:33:07;;;;;;;0.20;0.20;;;;;;;;;;5029443;28;20064;-77
2023/01/14 08:35:32;;;;;;;0.20;0.20;;;;;;;;;;5025732;28;20537;-78
2023/01/14 08:37:57;;;;;;;0.20;0.20;;;;;;;;;;5030607;28;20247;-76
2023/01/14 08:40:23;;;;;;;0.20;0.20;;;;;;;;;;5027862;28;20278;-74
2023/01/14 08:42:48;;;;;;;0.20;0.20;;;;;;;;;;5033718;28;20279;-76
2023/01/14 08:45:13;;;;;;;0.20;0.20;;;;;;;;;;5026264;28;20461;-77
2023/01/14 08:47:39;;;;;;;0.20;0.20;;;;;;;;;;5028211;28;20379;-78
2023/01/14 08:50:04;;;;;;;0.20;0.20;;;;;;;;;;5028384;28;20411;-75
2023/01/14 08:52:30;;;;;;;0.10;0.10;;;;;;;;;;5028289;28;20028;-80
2023/01/14 08:54:55;;;;;;;0.20;0.20;;;;;;;;;;5022669;28;20071;-75
2023/01/14 08:57:20;;;;;;;0.20;0.20;;;;;;;;;;5025721;28;20036;-78
2023/01/14 08:59:46;;;;;;;0.20;0.20;;;;;;;;;;5030100;28;20808;-76
2023/01/14 09:02:13;;;;;;;0.17;0.17;;;;;;;;;;5029115;28;20274;-75
2023/01/14 09:04:38;;;;;;;0.10;0.10;;;;;;;;;;5033318;28;20038;-76
2023/01/14 09:18:00;;;;;;;0.20;0.20;;;;;;;;;;5030897;28;20071;-75
2023/01/14 09:20:29;;;;;;;0.17;0.17;;;;;;;;;;5036064;28;20632;-77
2023/01/14 09:22:54;;;;;;;0.20;0.20;;;;;;;;;;5031956;28;20128;-78
2023/01/14 09:25:19;;;;;;;0.10;0.10;;;;;;;;;;5032763;28;20048;-75
2023/01/14 09:27:44;;;;;;;0.10;0.10;;;;;;;;;;5032808;28;20277;-75
2023/01/14 09:30:10;;;;;;;0.13;0.13;;;;;;;;;;5031329;28;20282;-74
2023/01/14 09:32:39;;;;;;;0.20;0.20;;;;;;;;;;5025017;28;20276;-76
2023/01/14 09:35:04;;;;;;;0.10;0.10;;;;;;;;;;5029614;28;20055;-74
2023/01/14 09:37:29;;;;;;;0.20;0.20;;;;;;;;;;5032784;28;20032;-75
2023/01/14 09:39:55;;;;;;;0.20;0.20;;;;;;;;;;5028094;28;20407;-77
2023/01/14 09:42:26;;;;;;;0.20;0.20;;;;;;;;;;5030745;28;20328;-72
2023/01/14 09:44:53;;;;;;;0.10;0.10;;;;;;;;;;5029112;28;20442;-75
2023/01/14 09:47:22;;;;;;;0.20;0.20;;;;;;;;;;5030295;28;20112;-75
2023/01/14 09:49:48;;;;;;;0.15;0.15;;;;;;;;;;5036525;28;20025;-74
2023/01/14 09:52:19;;;;;;;0.10;0.10;;;;;;;;;;5024752;28;20013;-74
2023/01/14 09:54:49;;;;;;;0.20;0.20;;;;;;;;;;5031650;28;20305;-72
2023/01/14 09:57:20;;;;;;;0.10;0.10;;;;;;;;;;5028387;28;20225;-80
2023/01/14 09:59:59;;;;;;;0.10;0.10;;;;;;;;;;5027472;28;20029;-76
2023/01/14 10:02:27;;;;;;;0.10;0.10;;;;;;;;;;5031592;28;20061;-72
2023/01/14 10:04:53;;;;;;;0.20;0.20;;;;;;;;;;5039644;28;20083;-75
2023/01/14 10:07:19;;;;;;;0.20;0.20;;;;;;;;;;5040956;28;20531;-76
2023/01/14 10:09:54;;;;;;;0.10;0.10;;;;;;;;;;5040825;28;20353;-73
2023/01/14 10:12:24;;;;;;;0.10;0.10;;;;;;;;;;5029012;28;20924;-79
2023/01/14 10:14:58;;;;;;;0.10;0.10;;;;;;;;;;5021980;28;20053;-74
2023/01/14 10:17:25;;;;;;;0.10;0.10;;;;;;;;;;5029599;28;20013;-75
2023/01/14 10:19:51;;;;;;;0.10;0.10;;;;;;;;;;5032114;28;20430;-75
2023/01/14 10:22:31;;;;;;;0.13;0.13;;;;;;;;;;5031794;28;20048;-77
2023/01/14 10:24:57;;;;;;;0.10;0.10;;;;;;;;;;5024597;28;20029;-73
2023/01/14 10:27:23;;;;;;;0.10;0.10;;;;;;;;;;5034632;28;20009;-75
2023/01/14 10:29:48;;;;;;;0.15;0.15;;;;;;;;;;5030781;28;20041;-77
2023/01/14 10:32:15;;;;;;;0.20;0.20;;;;;;;;;;5031790;28;20132;-75
2023/01/14 10:34:45;;;;;;;0.20;0.20;;;;;;;;;;5032721;28;20114;-73
2023/01/14 10:37:11;;;;;;;0.10;0.10;;;;;;;;;;5028354;28;20064;-74
2023/01/14 10:39:38;;;;;;;0.15;0.15;;;;;;;;;;5021981;28;20574;-76
2023/01/14 10:42:05;;;;;;;0.10;0.10;;;;;;;;;;5022532;28;20030;-73
2023/01/14 10:44:33;;;;;;;0.10;0.10;;;;;;;;;;5036617;28;20563;-76
2023/01/14 10:47:01;;;;;;;0.10;0.10;;;;;;;;;;5035196;28;20074;-77
2023/01/14 10:49:33;;;;;;;0.10;0.10;;;;;;;;;;5035968;28;20021;-77
2023/01/14 10:51:58;;;;;;;0.10;0.10;;;;;;;;;;5033070;28;20017;-74
2023/01/14 10:54:24;;;;;;;0.20;0.20;;;;;;;;;;5040031;28;20025;-75
2023/01/14 10:56:49;;;;;;;0.13;0.13;;;;;;;;;;5040121;28;20280;-73
2023/01/14 10:59:24;;;;;;;0.10;0.10;;;;;;;;;;5042051;28;20255;-75
2023/01/14 11:01:49;;;;;;;0.13;0.13;;;;;;;;;;5035803;28;20033;-75
2023/01/14 11:04:14;;;;;;;0.10;0.10;;;;;;;;;;5035436;28;20409;-78
2023/01/14 11:06:39;;;;;;;0.10;0.10;;;;;;;;;;5029093;28;20029;-76
2023/01/14 11:09:07;;;;;;;0.10;0.10;;;;;;;;;;5036984;28;20024;-75
2023/01/14 11:11:39;;;;;;;0.10;0.10;;;;;;;;;;5033436;28;20029;-74
2023/01/14 11:14:18;;;;;;;0.10;0.10;;;;;;;;;;5040536;28;20025;-75
2023/01/14 11:16:43;;;;;;;0.10;0.10;;;;;;;;;;5038157;28;20029;-77
2023/01/14 11:19:15;;;;;;;0.10;0.10;;;;;;;;;;5043978;28;20531;-75
2023/01/14 11:21:41;;;;;;;0.10;0.10;;;;;;;;;;5046118;28;20033;-75
2023/01/14 11:24:25;;;;;;;0.10;0.10;;;;;;;;;;5039652;28;20039;-74
2023/01/14 11:26:58;;;;;;;0.20;0.20;;;;;;;;;;5037561;28;20036;-75
2023/01/14 11:29:25;;;;;;;0.20;0.20;;;;;;;;;;5042590;28;20025;-74
2023/01/14 11:31:53;;;;;;;0.10;0.10;;;;;;;;;;5037903;28;20056;-74
2023/01/14 11:34:24;;;;;;;0.10;0.10;;;;;;;;;;5038532;28;20384;-72
2023/01/14 11:36:49;;;;;;;0.20;0.20;;;;;;;;;;5046746;28;20057;-76
2023/01/14 11:39:19;;;;;;;0.10;0.10;;;;;;;;;;5031263;28;20025;-73
2023/01/14 11:41:44;;;;;;;0.10;0.10;;;;;;;;;;5044409;28;20028;-75
2023/01/14 11:44:09;;;;;;;0.10;0.10;;;;;;;;;;5039730;28;20502;-76
2023/01/14 11:46:36;;;;;;;0.10;0.10;;;;;;;;;;5041068;28;20021;-78
2023/01/14 11:49:18;;;;;;;0.10;0.10;;;;;;;;;;5043031;28;20029;-74
2023/01/14 11:52:00;;;;;;;0.10;0.10;;;;;;;;;;5036888;28;20017;-75
2023/01/14 11:54:31;;;;;;;0.10;0.10;;;;;;;;;;5033477;28;20453;-75
2023/01/14 11:56:57;;;;;;;0.10;0.10;;;;;;;;;;5036383;28;20443;-75
2023/01/14 11:59:29;;;;;;;0.10;0.10;;;;;;;;;;5043183;28;20060;-75
2023/01/14 12:01:57;;;;;;;0.20;0.20;;;;;;;;;;5040033;28;20545;-73
2023/01/14 12:04:24;;;;;;;0.10;0.10;;;;;;;;;;5038351;28;20360;-77
2023/01/14 12:06:53;;;;;;;0.05;0.05;;;;;;;;;;5025563;28;20075;-78
2023/01/14 12:09:21;;;;;;;0.10;0.10;;;;;;;;;;5028987;28;20024;-77
2023/01/14 12:11:53;;;;;;;0.10;0.10;;;;;;;;;;5027130;28;20025;-75
2023/01/14 12:17:19;;;;;;;0.10;0.10;;;;;;;;;;5027889;28;20084;-73
2023/01/14 12:19:49;;;;;;;0.10;0.10;;;;;;;;;;5030955;28;20821;-72
2023/01/14 12:22:25;;;;;;;0.10;0.10;;;;;;;;;;5028475;28;20383;-72
2023/01/14 12:24:56;;;;;;;0.10;0.10;;;;;;;;;;5031154;28;20021;-73
2023/01/14 12:27:44;;;;;;;0.10;0.10;;;;;;;;;;5031753;28;20032;-74
2023/01/14 12:30:22;;;;;;;0.10;0.10;;;;;;;;;;5029151;28;20499;-77
2023/01/14 12:32:53;;;;;;;0.10;0.10;;;;;;;;;;5028001;28;20060;-76
2023/01/14 12:35:19;;;;;;;0.10;0.10;;;;;;;;;;5027581;28;20079;-75
2023/01/14 12:37:51;;;;;;;0.10;0.10;;;;;;;;;;5029540;28;20111;-77
2023/01/14 12:46:07;;;;;;;0.10;0.10;;;;;;;;;;5030747;28;20109;-74
2023/01/14 12:48:33;;;;;;;0.10;0.10;;;;;;;;;;5026706;28;20024;-75
2023/01/14 12:50:58;;;;;;;0.10;0.10;;;;;;;;;;5027314;28;20529;-76
2023/01/14 12:53:26;;;;;;;0.10;0.10;;;;;;;;;;5020251;28;20060;-76
2023/01/14 12:55:52;;;;;;;0.13;0.13;;;;;;;;;;5033247;28;20416;-77
2023/01/14 12:58:20;;;;;;;0.10;0.10;;;;;;;;;;5029756;28;20024;-75
2023/01/14 13:00:57;;;;;;;0.10;0.10;;;;;;;;;;5030620;28;20040;-75
2023/01/14 13:03:45;;;;;;;0.10;0.10;;;;;;;;;;5026651;28;20103;-77
2023/01/14 13:06:13;;;;;;;0.10;0.10;;;;;;;;;;5027468;28;20045;-72
2023/01/14 13:08:39;;;;;;;0.10;0.10;;;;;;;;;;5031562;28;20031;-74
2023/01/14 13:11:06;;;;;;;0.10;0.10;;;;;;;;;;5026071;28;20372;-77
2023/01/14 13:13:34;;;;;;;0.10;0.10;;;;;;;;;;5026067;28;20037;-74
2023/01/14 13:16:01;;;;;;;0.10;0.10;;;;;;;;;;5029340;28;20472;-77
2023/01/14 13:18:35;;;;;;;0.10;0.10;;;;;;;;;;5030499;28;20037;-73
2023/01/14 13:21:02;;;;;;;0.10;0.10;;;;;;;;;;5027532;28;20468;-74
2023/01/14 13:23:33;;;;;;;0.10;0.10;;;;;;;;;;5030977;28;20044;-73
2023/01/14 13:25:58;;;;;;;0.10;0.10;;;;;;;;;;5032052;28;20024;-78
2023/01/14 13:28:26;;;;;;;0.10;0.10;;;;;;;;;;5031562;28;20494;-74
2023/01/14 13:31:14;;;;;;;0.10;0.10;;;;;;;;;;5025461;28;20111;-74
2023/01/14 13:33:39;;;;;;;0.10;0.10;;;;;;;;;;5026552;28;20763;-72
2023/01/14 13:36:11;;;;;;;0.10;0.10;;;;;;;;;;5031077;28;20040;-75
2023/01/14 13:38:42;;;;;;;0.10;0.10;;;;;;;;;;5031297;28;20036;-74
2023/01/14 13:41:09;;;;;;;0.10;0.10;;;;;;;;;;5032852;28;20033;-78
2023/01/14 13:43:35;;;;;;;0.10;0.10;;;;;;;;;;5032750;28;20360;-76
2023/01/14 13:46:02;;;;;;;0.10;0.10;;;;;;;;;;5032622;28;20033;-73
2023/01/14 13:48:38;;;;;;;0.10;0.10;;;;;;;;;;5028358;28;20400;-73
2023/01/14 13:51:16;;;;;;;0.10;0.10;;;;;;;;;;5025540;28;20020;-73
2023/01/14 13:53:55;;;;;;;0.10;0.10;;;;;;;;;;5031455;28;20027;-74
2023/01/14 13:56:22;;;;;;;0.00;0.00;;;;;;;;;;5026713;28;22392;-76
2023/01/14 13:58:49;;;;;;;0.10;0.10;;;;;;;;;;5030040;28;20395;-75
2023/01/14 14:01:28;;;;;;;0.10;0.10;;;;;;;;;;5027032;28;20504;-78
2023/01/14 14:04:01;;;;;;;0.10;0.10;;;;;;;;;;5026417;28;20090;-75
2023/01/14 14:06:27;;;;;;;0.10;0.10;;;;;;;;;;5032226;28;20048;-73
2023/01/14 14:09:02;;;;;;;0.10;0.10;;;;;;;;;;5033393;28;20375;-75
2023/01/14 14:11:28;;;;;;;0.10;0.10;;;;;;;;;;5028552;28;20080;-74
2023/01/14 14:14:07;;;;;;;0.10;0.10;;;;;;;;;;5030922;28;20112;-74
2023/01/14 14:16:32;;;;;;;0.10;0.10;;;;;;;;;;5030779;28;20542;-76
2023/01/14 14:19:18;;;;;;;0.10;0.10;;;;;;;;;;5031482;28;20542;-75
2023/01/14 14:21:53;;;;;;;0.10;0.10;;;;;;;;;;5027707;28;20807;-74
2023/01/14 14:24:37;;;;;;;0.10;0.10;;;;;;;;;;5029763;28;20372;-71
2023/01/14 14:27:10;;;;;;;0.10;0.10;;;;;;;;;;5030710;28;20021;-74
2023/01/14 14:29:37;;;;;;;0.08;0.08;;;;;;;;;;5030195;28;20033;-73
2023/01/14 14:32:09;;;;;;;0.10;0.10;;;;;;;;;;5029645;28;20032;-71
2023/01/14 14:34:34;;;;;;;0.10;0.10;;;;;;;;;;5045063;28;20021;-71
2023/01/14 14:37:02;;;;;;;0.10;0.10;;;;;;;;;;5028307;28;20605;-74
2023/01/14 14:39:32;;;;;;;0.10;0.10;;;;;;;;;;5031718;28;20037;-74
2023/01/14 14:41:59;;;;;;;0.10;0.10;;;;;;;;;;5031218;28;20036;-72
2023/01/14 14:44:25;;;;;;;0.10;0.10;;;;;;;;;;5030444;28;20029;-72
2023/01/14 14:46:50;;;;;;;0.10;0.10;;;;;;;;;;5026512;28;20330;-72
2023/01/14 14:49:29;;;;;;;0.10;0.10;;;;;;;;;;5032669;28;20082;-72
2023/01/14 14:51:56;;;;;;;0.10;0.10;;;;;;;;;;5038205;28;20021;-74
2023/01/14 14:54:25;;;;;;;0.10;0.10;;;;;;;;;;5035647;28;20013;-72
2023/01/14 14:56:51;;;;;;;0.10;0.10;;;;;;;;;;5034905;28;20758;-75
2023/01/14 14:59:16;;;;;;;0.10;0.10;;;;;;;;;;5036205;28;20024;-76
2023/01/14 15:01:44;;;;;;;0.00;0.00;;;;;;;;;;5034705;28;20518;-73
2023/01/14 15:04:15;;;;;;;0.10;0.10;;;;;;;;;;5032454;28;20112;-73
2023/01/14 15:06:41;;;;;;;0.10;0.10;;;;;;;;;;5037815;28;20498;-76
2023/01/14 15:09:08;;;;;;;0.10;0.10;;;;;;;;;;5034299;28;20033;-73
2023/01/14 15:11:34;;;;;;;0.10;0.10;;;;;;;;;;5029290;28;20021;-71
2023/01/14 15:14:00;;;;;;;0.08;0.08;;;;;;;;;;5028117;28;20035;-76
2023/01/14 15:16:29;;;;;;;0.10;0.10;;;;;;;;;;5028250;28;20025;-74
2023/01/14 15:18:59;;;;;;;0.10;0.10;;;;;;;;;;5024509;28;20164;-74
2023/01/14 15:21:29;;;;;;;0.10;0.10;;;;;;;;;;5031031;28;20454;-77
2023/01/14 15:23:56;;;;;;;0.10;0.10;;;;;;;;;;5030916;28;20109;-76